KEAN

Phifer Airfield Airport

Wheatland, Wyoming, USA
METAR KEAN 231055Z AUTO 20004KT 10SM CLR 11/08 A2997 RMK AO2 T01110075
Observed Flight Rules
May-23 @ 10:55 UTC (22 minutes ago) Visual Flight Rules
Wind Visibility Clouds
200° at 4 knots 10 miles
  • Clear skies
Temperatures Readings
Current 11°C / 52°F
Dewpoint 8°C / 46°F
Humidity 82%
Altimeter 29.97" Hg
Pressure 1015 hPa
Elevation 1456
METAR KEAN 231055Z AUTO 20004KT 10SM CLR 11/08 A2997 RMK AO2 T01110075
Observed Flight Rules
May-23 @ 10:55 UTC
(22 minutes ago)
VFR
Wind Visibility
200° at 4 knots 10 miles
Clouds
  • Clear skies
Temperature Dewpoint
11°C / 52°F 8°C / 46°F
Humidity Altimeter Pressure
82% 29.97" Hg 1015 hPa